Time;durP1;ratioP1;P1;durP2;ratioP2;P2;SDS_P1;SDS_P2;PMS_P1;PMS_P2;Temp;Humidity;BMP_temperature;BMP_pressure;BME280_temperature;BME280_humidity;BME280_pressure;Samples;Min_cycle;Max_cycle;Signal;HPM_P1;HPM_P2
2022/11/24 00:01:07;;;;;;;119.70;41.30;;;;;;;1.82;88.31;100049.31;106809;1243;97720;-67
2022/11/24 00:03:32;;;;;;;119.40;43.90;;;;;;;1.83;88.24;100050.16;106968;1235;97636;-67
2022/11/24 00:06:06;;;;;;;118.00;39.60;;;;;;;1.82;88.10;100051.06;106931;1243;97913;-67
2022/11/24 00:08:33;;;;;;;122.50;42.70;;;;;;;1.82;88.16;100057.07;106906;1246;98911;-67
2022/11/24 00:11:10;;;;;;;129.30;43.00;;;;;;;1.82;88.33;100059.36;106959;1243;98143;-67
2022/11/24 00:13:37;;;;;;;108.70;39.70;;;;;;;1.81;88.20;100061.66;106879;1251;100491;-67
2022/11/24 00:16:12;;;;;;;129.40;44.10;;;;;;;1.77;88.12;100059.08;106832;1243;97724;-67
2022/11/24 00:18:39;;;;;;;123.00;40.50;;;;;;;1.77;87.97;100062.44;106835;1239;111558;-67
2022/11/24 00:21:05;;;;;;;127.40;41.60;;;;;;;1.77;88.19;100068.08;106881;1243;98301;-67
2022/11/24 00:23:30;;;;;;;104.60;38.40;;;;;;;1.76;88.15;100070.55;106952;1243;97643;-67
2022/11/24 00:26:02;;;;;;;109.80;39.90;;;;;;;1.75;88.20;100081.14;106806;1243;139019;-67
2022/11/24 00:28:28;;;;;;;118.30;41.80;;;;;;;1.74;88.23;100085.91;106917;1253;111002;-67
2022/11/24 00:30:53;;;;;;;117.80;40.60;;;;;;;1.74;88.26;100084.14;106852;1243;98425;-67
2022/11/24 00:33:18;;;;;;;119.50;42.70;;;;;;;1.74;88.28;100085.20;106956;1239;97471;-66
2022/11/24 00:35:43;;;;;;;125.70;39.70;;;;;;;1.77;88.23;100086.73;106883;1245;98322;-67
2022/11/24 00:38:09;;;;;;;128.60;42.50;;;;;;;1.78;88.44;100088.31;106930;1243;98785;-67
2022/11/24 00:40:34;;;;;;;116.00;41.00;;;;;;;1.79;88.32;100092.70;106869;1229;98085;-66
2022/11/24 00:42:59;;;;;;;124.30;43.70;;;;;;;1.78;88.24;100090.78;106931;1243;97754;-67
2022/11/24 00:45:24;;;;;;;134.80;44.20;;;;;;;1.77;88.20;100091.86;106809;1243;138826;-67
2022/11/24 00:47:50;;;;;;;127.60;42.70;;;;;;;1.75;88.31;100093.11;106832;1246;96742;-67
2022/11/24 00:50:15;;;;;;;121.90;41.00;;;;;;;1.75;88.24;100087.48;106828;1243;141046;-66
2022/11/24 00:52:40;;;;;;;124.70;42.90;;;;;;;1.71;88.25;100085.08;106890;1243;98111;-66
2022/11/24 00:55:06;;;;;;;120.70;40.40;;;;;;;1.68;88.26;100087.25;106947;1243;99078;-67
2022/11/24 00:57:34;;;;;;;122.30;42.40;;;;;;;1.67;88.20;100081.09;106879;1236;108042;-66
2022/11/24 00:59:59;;;;;;;129.20;43.70;;;;;;;1.68;88.27;100081.24;106892;1235;97830;-67
2022/11/24 01:02:25;;;;;;;128.00;44.30;;;;;;;1.71;88.20;100083.14;106861;1236;97615;-66
2022/11/24 01:04:50;;;;;;;128.80;44.10;;;;;;;1.73;88.15;100085.76;106886;1243;99681;-67
2022/11/24 01:07:15;;;;;;;128.20;43.60;;;;;;;1.73;88.22;100088.23;106768;1233;97901;-67
2022/11/24 01:09:42;;;;;;;117.70;42.70;;;;;;;1.73;88.20;100090.70;106814;1259;140158;-67
2022/11/24 01:12:07;;;;;;;117.50;40.10;;;;;;;1.71;88.33;100090.36;106897;1243;110558;-67
2022/11/24 01:14:33;;;;;;;122.60;41.80;;;;;;;1.71;88.22;100091.95;106769;1251;139844;-67
2022/11/24 01:16:58;;;;;;;107.70;38.90;;;;;;;1.70;88.31;100090.91;106896;1235;98587;-67
2022/11/24 01:19:23;;;;;;;113.60;41.10;;;;;;;1.66;88.06;100093.62;106837;1243;97710;-66
2022/11/24 01:21:49;;;;;;;114.60;41.70;;;;;;;1.63;88.15;100092.77;106908;1251;97698;-66
2022/11/24 01:24:15;;;;;;;120.50;40.70;;;;;;;1.66;88.27;100091.33;106838;1244;108111;-66
2022/11/24 01:26:41;;;;;;;121.00;42.20;;;;;;;1.68;88.44;100090.78;106900;1243;97660;-66
2022/11/24 01:29:06;;;;;;;127.00;42.70;;;;;;;1.69;88.37;100091.80;106955;1243;98812;-66
2022/11/24 01:31:32;;;;;;;118.60;41.10;;;;;;;1.71;88.34;100096.36;106923;1229;99892;-66
2022/11/24 01:33:57;;;;;;;121.90;41.10;;;;;;;1.71;88.32;100094.94;106688;1240;138758;-66
2022/11/24 01:36:23;;;;;;;131.10;43.60;;;;;;;1.70;88.29;100097.07;106988;1243;97670;-68
2022/11/24 01:38:48;;;;;;;113.30;41.60;;;;;;;1.75;88.36;100101.58;106707;1232;139487;-66
2022/11/24 01:41:24;;;;;;;124.80;45.40;;;;;;;1.77;88.35;100103.66;106938;1245;97702;-66
2022/11/24 01:43:52;;;;;;;129.70;43.80;;;;;;;1.78;88.54;100102.04;106854;1237;97790;-65
2022/11/24 01:46:42;;;;;;;113.50;39.20;;;;;;;1.78;88.23;100105.94;106762;1243;139116;-68
2022/11/24 01:49:07;;;;;;;122.30;42.50;;;;;;;1.74;88.34;100103.00;106851;1241;111705;-67
2022/11/24 01:51:38;;;;;;;121.00;40.20;;;;;;;1.69;88.24;100102.38;106909;1251;97749;-67
2022/11/24 01:54:32;;;;;;;118.60;40.20;;;;;;;1.67;88.19;100102.94;106842;1250;108158;-67
2022/11/24 01:57:04;;;;;;;119.90;39.10;;;;;;;1.66;88.26;100106.48;106841;1246;97742;-67
2022/11/24 01:59:30;;;;;;;124.90;40.80;;;;;;;1.68;88.47;100103.27;106886;1243;97618;-67
2022/11/24 02:01:56;;;;;;;121.20;42.00;;;;;;;1.70;88.38;100105.17;106849;1245;97736;-67
2022/11/24 02:04:30;;;;;;;115.30;39.90;;;;;;;1.69;88.41;100103.96;106931;1253;97740;-67
2022/11/24 02:06:58;;;;;;;130.50;43.60;;;;;;;1.69;88.43;100108.89;106774;1243;97688;-66
2022/11/24 02:09:35;;;;;;;123.20;41.00;;;;;;;1.72;88.51;100109.38;106924;1247;96554;-65
2022/11/24 02:12:01;;;;;;;144.20;45.60;;;;;;;1.74;88.45;100108.30;106894;1247;111795;-65
2022/11/24 02:14:27;;;;;;;137.30;45.60;;;;;;;1.75;88.44;100109.50;106876;1251;97690;-67
2022/11/24 02:16:52;;;;;;;127.00;41.00;;;;;;;1.76;88.48;100110.36;106971;1253;97609;-68
2022/11/24 02:19:34;;;;;;;127.30;42.90;;;;;;;1.76;88.63;100112.82;106902;1235;97729;-65
2022/11/24 02:22:01;;;;;;;127.10;43.10;;;;;;;1.76;88.49;100113.17;106867;1243;113083;-68
2022/11/24 02:24:47;;;;;;;139.20;44.80;;;;;;;1.76;88.38;100108.25;106878;1235;100310;-68
2022/11/24 02:27:12;;;;;;;124.40;41.80;;;;;;;1.73;88.27;100110.42;106684;1247;138919;-66
2022/11/24 02:29:39;;;;;;;140.70;44.20;;;;;;;1.71;88.37;100111.15;106886;1243;97699;-66
2022/11/24 02:32:08;;;;;;;140.70;47.90;;;;;;;1.73;88.56;100108.99;106895;1237;97647;-66
2022/11/24 02:34:33;;;;;;;124.90;41.60;;;;;;;1.78;88.54;100106.46;106934;1251;97652;-66
2022/11/24 02:36:59;;;;;;;128.70;43.30;;;;;;;1.79;88.52;100103.44;106875;1251;97904;-66
2022/11/24 02:39:24;;;;;;;128.60;42.60;;;;;;;1.78;88.48;100105.39;106822;1235;97601;-66
2022/11/24 02:42:12;;;;;;;137.40;43.50;;;;;;;1.79;88.50;100105.21;106841;1239;97631;-66
2022/11/24 02:44:43;;;;;;;117.30;41.50;;;;;;;1.78;88.43;100109.10;106778;1243;138727;-66
2022/11/24 02:47:10;;;;;;;;;;;;;;;1.77;88.42;100109.28;106862;1251;98493;-66
2022/11/24 02:49:35;;;;;;;126.00;41.10;;;;;;;1.77;88.52;100108.41;106872;1233;97788;-66
2022/11/24 02:52:01;;;;;;;134.30;42.20;;;;;;;1.79;88.47;100106.09;106844;1243;97671;-66
2022/11/24 02:54:27;;;;;;;132.70;40.80;;;;;;;1.78;88.37;100111.92;106978;1243;97793;-66
2022/11/24 02:56:53;;;;;;;127.60;42.60;;;;;;;1.74;88.41;100113.92;106759;1236;139337;-66
2022/11/24 02:59:18;;;;;;;131.80;40.70;;;;;;;1.69;88.32;100122.09;106859;1248;97575;-68
2022/11/24 03:01:43;;;;;;;112.70;35.30;;;;;;;1.69;88.47;100121.05;106933;1243;99164;-65
2022/11/24 03:04:09;;;;;;;127.90;42.10;;;;;;;1.65;88.26;100118.98;106935;1243;97734;-65
2022/11/24 03:06:34;;;;;;;137.80;42.30;;;;;;;1.62;88.31;100121.49;106915;1259;97596;-67
2022/11/24 03:08:59;;;;;;;140.40;41.80;;;;;;;1.62;88.41;100121.48;106838;1243;99082;-67
2022/11/24 03:11:25;;;;;;;131.70;40.90;;;;;;;1.63;88.47;100123.24;106905;1243;97710;-67
2022/11/24 03:13:50;;;;;;;139.20;42.30;;;;;;;1.64;88.39;100123.76;106947;1237;97758;-67
2022/11/24 03:16:15;;;;;;;129.90;41.10;;;;;;;1.61;88.39;100121.86;106766;1236;138893;-66
2022/11/24 03:18:40;;;;;;;143.60;43.50;;;;;;;1.56;88.33;100119.30;106923;1229;97688;-66
2022/11/24 03:21:06;;;;;;;130.50;42.60;;;;;;;1.52;88.24;100116.91;106711;1243;138522;-66
2022/11/24 03:23:31;;;;;;;143.40;43.00;;;;;;;1.48;88.42;100116.42;106933;1227;97684;-66
2022/11/24 03:26:11;;;;;;;156.80;44.30;;;;;;;1.48;88.31;100115.73;106875;1248;97801;-67
2022/11/24 03:28:37;;;;;;;151.20;45.50;;;;;;;1.48;88.33;100118.02;106911;1243;97630;-66
2022/11/24 03:31:02;;;;;;;150.70;44.60;;;;;;;1.43;88.34;100119.50;106849;1236;97743;-66
2022/11/24 03:33:28;;;;;;;155.20;45.80;;;;;;;1.40;88.43;100119.38;106992;1243;97789;-67
2022/11/24 03:35:53;;;;;;;141.70;44.20;;;;;;;1.38;88.39;100116.41;106867;1243;97698;-66
2022/11/24 03:38:19;;;;;;;158.90;47.40;;;;;;;1.38;88.28;100120.27;106822;1244;138988;-66
2022/11/24 03:40:44;;;;;;;161.10;47.30;;;;;;;1.36;88.46;100118.02;106862;1244;97755;-66
2022/11/24 03:43:09;;;;;;;161.30;46.20;;;;;;;1.37;88.52;100120.29;106923;1243;96529;-66
2022/11/24 03:45:34;;;;;;;147.90;43.50;;;;;;;1.38;88.47;100125.91;106868;1253;138731;-66
2022/11/24 03:48:00;;;;;;;142.30;45.90;;;;;;;1.38;88.45;100131.72;106810;1243;98396;-66
2022/11/24 03:50:26;;;;;;;141.80;42.40;;;;;;;1.39;88.48;100132.58;107066;1236;97726;-66
2022/11/24 03:52:51;;;;;;;143.00;43.60;;;;;;;1.39;88.37;100135.23;106877;1243;97693;-66
2022/11/24 03:55:16;;;;;;;140.40;43.10;;;;;;;1.38;88.41;100133.84;106933;1243;97705;-66
2022/11/24 03:57:41;;;;;;;142.40;44.00;;;;;;;1.36;88.35;100132.11;106942;1252;97702;-66
2022/11/24 04:00:08;;;;;;;145.40;43.00;;;;;;;1.38;88.52;100133.30;106860;1253;97636;-66
2022/11/24 04:02:33;;;;;;;158.40;46.20;;;;;;;1.39;88.62;100132.05;106933;1246;97724;-66
2022/11/24 04:04:59;;;;;;;132.00;42.00;;;;;;;1.40;88.60;100135.56;106888;1243;97748;-67
2022/11/24 04:07:24;;;;;;;147.30;45.20;;;;;;;1.40;88.51;100136.62;106913;1251;97597;-66
2022/11/24 04:09:49;;;;;;;156.60;46.50;;;;;;;1.38;88.46;100137.16;106752;1243;140265;-66
2022/11/24 04:14:58;;;;;;;167.10;48.00;;;;;;;1.40;88.55;100136.27;106760;1237;139938;-66
2022/11/24 04:17:24;;;;;;;165.70;46.10;;;;;;;1.41;88.71;100139.07;106832;1243;97724;-66
2022/11/24 04:19:49;;;;;;;162.50;44.30;;;;;;;1.43;88.66;100142.73;106842;1236;97702;-67
2022/11/24 04:22:14;;;;;;;154.20;46.50;;;;;;;1.43;88.69;100145.91;106943;1236;98523;-66
2022/11/24 04:24:40;;;;;;;151.60;46.80;;;;;;;1.41;88.69;100149.64;106911;1243;97752;-66
2022/11/24 04:27:05;;;;;;;156.40;46.40;;;;;;;1.41;88.67;100153.52;106873;1246;97619;-66
2022/11/24 04:29:30;;;;;;;158.60;48.60;;;;;;;1.41;88.80;100156.86;107002;1243;97665;-66
2022/11/24 04:31:55;;;;;;;159.90;46.60;;;;;;;1.41;88.74;100160.55;106952;1235;97865;-66
2022/11/24 04:34:21;;;;;;;150.80;50.40;;;;;;;1.39;88.77;100156.34;106779;1247;138714;-66
2022/11/24 04:36:46;;;;;;;168.20;48.20;;;;;;;1.38;88.80;100163.40;106956;1236;97974;-66
2022/11/24 04:39:11;;;;;;;163.20;47.30;;;;;;;1.39;88.88;100161.80;106877;1236;96740;-67
2022/11/24 04:41:38;;;;;;;163.30;47.00;;;;;;;1.39;88.88;100164.62;106918;1237;97718;-66
2022/11/24 04:44:04;;;;;;;147.50;44.30;;;;;;;1.40;88.77;100162.85;106902;1243;108224;-67
2022/11/24 04:46:29;;;;;;;149.20;45.30;;;;;;;1.40;88.72;100168.48;106917;1251;97620;-66
2022/11/24 04:48:54;;;;;;;149.80;46.60;;;;;;;1.37;88.66;100168.34;106961;1243;97687;-66
2022/11/24 04:51:19;;;;;;;139.40;43.40;;;;;;;1.38;88.83;100169.91;106908;1243;97660;-66
2022/11/24 04:53:47;;;;;;;156.80;44.70;;;;;;;1.37;88.79;100167.63;106908;1237;97740;-66
2022/11/24 04:56:13;;;;;;;152.10;45.70;;;;;;;1.39;88.94;100163.91;106741;1243;138965;-66
2022/11/24 04:58:38;;;;;;;136.90;44.00;;;;;;;1.41;88.86;100165.30;106870;1245;97588;-66
2022/11/24 05:01:07;;;;;;;142.80;43.00;;;;;;;1.41;88.96;100163.36;106972;1243;97791;-66
2022/11/24 05:03:32;;;;;;;129.70;43.60;;;;;;;1.42;88.95;100171.45;106841;1236;141110;-66
2022/11/24 05:05:58;;;;;;;132.30;40.60;;;;;;;1.41;88.93;100170.40;106910;1243;97439;-66
2022/11/24 05:08:23;;;;;;;135.20;41.60;;;;;;;1.42;88.93;100169.69;107033;1249;97678;-66
2022/11/24 05:10:49;;;;;;;145.20;43.80;;;;;;;1.43;89.02;100170.55;106842;1247;97784;-67
2022/11/24 05:13:14;;;;;;;128.00;40.20;;;;;;;1.45;89.08;100174.58;106862;1236;97667;-66
2022/11/24 05:15:40;;;;;;;136.00;41.10;;;;;;;1.47;88.94;100177.55;106947;1245;97659;-66
2022/11/24 05:18:08;;;;;;;138.80;43.70;;;;;;;1.49;89.06;100180.15;106799;1247;97812;-66
2022/11/24 05:20:34;;;;;;;152.90;45.70;;;;;;;1.54;89.18;100177.61;106819;1246;98190;-67
2022/11/24 05:23:01;;;;;;;156.50;43.10;;;;;;;1.60;89.15;100182.81;106819;1236;97448;-66
2022/11/24 05:25:27;;;;;;;173.40;46.70;;;;;;;1.58;89.18;100175.61;106855;1244;97725;-66
2022/11/24 05:27:52;;;;;;;169.40;47.60;;;;;;;1.59;89.12;100176.66;106882;1245;97582;-66
2022/11/24 05:30:17;;;;;;;173.90;47.60;;;;;;;1.58;89.16;100180.55;106852;1246;98813;-67
2022/11/24 05:32:43;;;;;;;174.20;48.60;;;;;;;1.58;89.16;100182.14;106745;1234;138785;-67
2022/11/24 05:35:08;;;;;;;160.30;45.00;;;;;;;1.58;89.18;100183.54;106898;1246;97691;-67
2022/11/24 05:37:34;;;;;;;166.10;45.30;;;;;;;1.57;88.97;100184.09;106917;1245;98228;-66
2022/11/24 05:39:59;;;;;;;166.20;46.10;;;;;;;1.56;89.04;100190.79;106887;1252;97913;-66
2022/11/24 05:42:40;;;;;;;175.90;49.20;;;;;;;1.54;89.08;100197.69;106930;1246;97704;-67
2022/11/24 05:45:08;;;;;;;165.10;46.80;;;;;;;1.57;89.13;100197.64;106782;1251;111597;-66
2022/11/24 05:47:34;;;;;;;183.70;46.70;;;;;;;1.56;89.13;100202.23;106941;1252;99497;-66
2022/11/24 05:49:59;;;;;;;168.80;49.40;;;;;;;1.55;89.12;100202.44;106825;1242;97591;-66
2022/11/24 05:52:24;;;;;;;154.10;45.40;;;;;;;1.57;89.29;100209.97;106786;1245;139290;-66
2022/11/24 05:54:49;;;;;;;151.40;43.40;;;;;;;1.55;89.07;100207.71;106769;1252;98094;-66
2022/11/24 05:57:16;;;;;;;167.10;45.30;;;;;;;1.54;89.05;100207.90;106814;1241;97647;-66
2022/11/24 05:59:41;;;;;;;164.90;45.80;;;;;;;1.53;89.20;100206.85;107166;1235;97615;-66
2022/11/24 06:02:08;;;;;;;161.10;46.40;;;;;;;1.51;89.12;100211.98;106791;1250;97684;-67
2022/11/24 06:04:34;;;;;;;163.20;47.40;;;;;;;1.51;89.11;100210.23;106863;1232;97713;-66
2022/11/24 06:06:59;;;;;;;176.90;46.30;;;;;;;1.50;89.24;100209.73;106899;1246;97797;-67
2022/11/24 06:09:25;;;;;;;161.80;46.50;;;;;;;1.49;89.17;100213.23;106724;1235;139127;-66
2022/11/24 06:11:50;;;;;;;156.00;44.80;;;;;;;1.51;89.27;100213.22;106897;1250;97607;-66
2022/11/24 06:14:17;;;;;;;164.70;47.40;;;;;;;1.53;89.16;100219.01;106854;1236;97694;-66
2022/11/24 06:16:42;;;;;;;182.30;44.40;;;;;;;1.54;89.36;100219.35;106835;1233;140401;-66
2022/11/24 06:19:11;;;;;;;140.90;43.10;;;;;;;1.54;89.25;100222.69;107053;1235;97571;-66
2022/11/24 06:21:36;;;;;;;165.10;44.00;;;;;;;1.52;89.01;100226.07;106965;1241;112370;-66
2022/11/24 06:24:01;;;;;;;155.30;44.90;;;;;;;1.51;89.30;100229.08;106971;1245;97605;-66
2022/11/24 06:26:27;;;;;;;131.70;39.90;;;;;;;1.52;89.18;100232.58;107019;1256;97716;-66
2022/11/24 06:28:52;;;;;;;151.80;41.70;;;;;;;1.56;89.38;100236.92;107012;1235;97688;-66
2022/11/24 06:31:18;;;;;;;139.60;42.10;;;;;;;1.62;89.47;100236.15;106953;1244;98737;-67
2022/11/24 06:33:43;;;;;;;136.40;38.00;;;;;;;1.64;89.31;100244.75;106937;1245;107853;-67
2022/11/24 06:36:11;;;;;;;134.90;41.40;;;;;;;1.66;89.49;100245.60;107011;1257;96500;-66
2022/11/24 06:38:37;;;;;;;138.70;42.20;;;;;;;1.70;89.55;100247.65;106933;1241;140381;-66
2022/11/24 06:41:05;;;;;;;152.30;42.40;;;;;;;1.73;89.48;100253.79;106951;1236;97727;-66
2022/11/24 06:43:31;;;;;;;142.90;41.10;;;;;;;1.76;89.51;100257.96;106899;1235;107842;-66
2022/11/24 06:45:57;;;;;;;132.40;39.60;;;;;;;1.79;89.51;100260.38;106977;1244;97587;-65
2022/11/24 06:48:23;;;;;;;139.10;40.00;;;;;;;1.82;89.54;100265.10;106930;1245;97623;-65
2022/11/24 06:50:49;;;;;;;142.50;42.50;;;;;;;1.81;89.33;100267.94;107065;1243;99166;-65
2022/11/24 06:53:14;;;;;;;143.90;43.20;;;;;;;1.79;89.33;100265.50;106900;1235;97821;-66
2022/11/24 06:55:40;;;;;;;136.20;41.00;;;;;;;1.78;89.39;100271.15;106962;1235;97630;-66
2022/11/24 06:58:06;;;;;;;140.30;43.00;;;;;;;1.80;89.62;100276.41;107255;1231;97654;-66
2022/11/24 07:00:31;;;;;;;143.20;40.40;;;;;;;1.82;89.43;100277.27;106918;1251;98645;-65
2022/11/24 07:02:59;;;;;;;134.90;40.80;;;;;;;1.85;89.62;100278.10;106762;1241;140509;-66
2022/11/24 07:05:25;;;;;;;140.30;43.40;;;;;;;1.88;89.63;100282.11;106894;1251;98233;-69
2022/11/24 07:07:50;;;;;;;134.20;40.70;;;;;;;1.89;89.70;100281.56;106818;1235;98225;-66
2022/11/24 07:10:15;;;;;;;136.50;41.80;;;;;;;1.88;89.39;100277.17;107016;1245;97834;-67
2022/11/24 07:12:41;;;;;;;136.20;40.80;;;;;;;1.87;89.35;100278.43;106913;1237;97716;-66
2022/11/24 07:15:08;;;;;;;129.60;38.80;;;;;;;1.86;89.50;100282.31;106955;1241;99254;-66
2022/11/24 07:17:40;;;;;;;136.50;41.30;;;;;;;1.90;89.46;100287.02;106975;1234;100259;-66
2022/11/24 07:20:07;;;;;;;133.90;40.70;;;;;;;1.94;89.67;100287.13;106896;1241;107743;-66
2022/11/24 07:22:33;;;;;;;136.20;41.40;;;;;;;2.00;89.60;100290.57;106914;1235;139582;-66
2022/11/24 07:24:59;;;;;;;126.90;40.90;;;;;;;1.98;89.60;100292.53;107096;1247;97836;-65
2022/11/24 07:27:25;;;;;;;120.90;40.50;;;;;;;1.97;89.33;100295.55;107036;1241;97703;-66
2022/11/24 07:29:51;;;;;;;122.60;36.70;;;;;;;1.98;89.54;100294.13;106971;1243;108069;-65
2022/11/24 07:32:16;;;;;;;120.20;38.40;;;;;;;1.95;89.34;100296.11;106956;1241;97795;-66
2022/11/24 07:34:41;;;;;;;116.00;37.60;;;;;;;1.96;89.51;100296.63;106991;1252;97593;-67
2022/11/24 07:37:06;;;;;;;112.70;37.40;;;;;;;1.96;89.30;100298.73;106850;1234;97704;-67
2022/11/24 07:39:32;;;;;;;110.30;37.70;;;;;;;1.99;89.39;100297.28;106772;1235;141048;-66
2022/11/24 07:42:00;;;;;;;123.40;40.60;;;;;;;1.97;89.36;100301.89;106810;1235;98649;-68
2022/11/24 07:44:26;;;;;;;105.50;35.70;;;;;;;1.96;89.29;100304.55;106900;1234;111968;-67
2022/11/24 07:46:51;;;;;;;124.60;39.60;;;;;;;1.93;89.37;100304.77;106672;1234;138795;-67
2022/11/24 07:49:18;;;;;;;109.40;37.00;;;;;;;1.93;89.29;100300.01;106716;1233;97761;-67
2022/11/24 07:51:44;;;;;;;120.60;39.90;;;;;;;1.94;89.44;100305.09;106547;1233;101176;-65
2022/11/24 07:54:09;;;;;;;109.10;38.80;;;;;;;1.92;89.26;100300.91;106824;1235;107254;-65
2022/11/24 07:56:35;;;;;;;115.50;39.50;;;;;;;1.90;89.32;100301.11;106866;1234;97728;-67
2022/11/24 07:59:00;;;;;;;119.40;36.00;;;;;;;1.93;89.26;100300.89;106850;1234;97656;-67
2022/11/24 08:01:25;;;;;;;130.30;40.90;;;;;;;1.96;89.47;100300.86;106752;1239;98144;-66
2022/11/24 08:03:51;;;;;;;134.40;43.00;;;;;;;2.00;89.55;100305.38;106737;1234;98105;-65
2022/11/24 08:06:17;;;;;;;121.50;39.10;;;;;;;2.03;89.44;100306.40;106809;1235;98758;-66
2022/11/24 08:08:43;;;;;;;129.60;42.60;;;;;;;2.02;89.42;100311.33;106745;1234;139354;-66
2022/11/24 08:11:11;;;;;;;130.80;40.30;;;;;;;2.03;89.35;100308.34;107095;1241;97628;-66
2022/11/24 08:13:37;;;;;;;128.50;41.70;;;;;;;2.05;89.53;100307.59;107074;1237;100208;-66
2022/11/24 08:16:08;;;;;;;142.00;43.90;;;;;;;2.07;89.39;100311.98;106849;1234;97690;-67
2022/11/24 08:18:35;;;;;;;140.70;43.90;;;;;;;2.05;89.13;100312.54;106902;1243;99081;-67
2022/11/24 08:21:01;;;;;;;134.20;39.50;;;;;;;2.06;89.31;100314.29;106850;1244;97669;-66
2022/11/24 08:23:26;;;;;;;125.70;39.70;;;;;;;2.07;89.34;100316.73;106947;1235;97605;-67
2022/11/24 08:25:53;;;;;;;132.40;39.90;;;;;;;2.05;89.18;100317.83;106857;1244;97655;-66
2022/11/24 08:28:19;;;;;;;139.10;43.50;;;;;;;2.01;89.16;100318.40;106967;1240;99041;-66
2022/11/24 08:30:44;;;;;;;129.20;39.60;;;;;;;2.00;89.15;100321.23;106819;1241;97625;-66
2022/11/24 08:33:10;;;;;;;127.10;40.30;;;;;;;2.01;89.08;100325.99;106816;1245;139965;-66
2022/11/24 08:35:37;;;;;;;133.70;41.90;;;;;;;2.05;89.53;100328.20;106902;1234;97700;-66
2022/11/24 08:38:02;;;;;;;125.60;39.00;;;;;;;2.09;89.35;100337.85;107234;1250;97805;-66
2022/11/24 08:40:27;;;;;;;141.20;43.90;;;;;;;2.13;89.42;100336.04;107152;1248;98315;-66
2022/11/24 08:42:59;;;;;;;127.60;40.40;;;;;;;2.10;89.27;100334.66;106901;1252;97621;-66
2022/11/24 08:45:26;;;;;;;125.80;39.60;;;;;;;2.14;89.38;100332.84;106936;1245;108011;-66
2022/11/24 08:47:56;;;;;;;120.40;39.00;;;;;;;2.15;89.34;100332.30;106881;1245;97698;-66
2022/11/24 08:50:22;;;;;;;131.90;42.10;;;;;;;2.15;89.32;100328.60;106966;1241;99215;-66
2022/11/24 08:52:50;;;;;;;129.20;42.50;;;;;;;2.13;89.18;100334.09;106967;1240;98072;-66
2022/11/24 08:55:15;;;;;;;130.70;40.00;;;;;;;2.17;89.24;100334.40;106989;1245;97622;-65
2022/11/24 08:57:40;;;;;;;127.00;42.10;;;;;;;2.18;89.23;100331.03;106909;1235;139093;-66
2022/11/24 09:00:08;;;;;;;133.30;43.10;;;;;;;2.19;89.34;100335.95;106952;1246;97694;-66
2022/11/24 09:02:33;;;;;;;130.80;42.30;;;;;;;2.21;89.36;100332.58;106878;1249;139093;-66
2022/11/24 09:04:59;;;;;;;119.30;40.60;;;;;;;2.25;89.44;100331.63;106958;1244;97815;-66
2022/11/24 09:07:24;;;;;;;134.40;40.90;;;;;;;2.23;88.99;100335.01;107012;1250;97701;-66
2022/11/24 09:09:49;;;;;;;124.70;41.30;;;;;;;2.24;89.22;100335.52;106896;1251;97597;-66
2022/11/24 09:12:14;;;;;;;125.00;39.70;;;;;;;2.28;89.27;100338.64;106991;1235;97690;-66
2022/11/24 09:14:40;;;;;;;133.10;40.80;;;;;;;2.26;89.08;100343.25;106920;1235;98140;-66
2022/11/24 09:17:05;;;;;;;135.20;43.80;;;;;;;2.29;89.15;100343.02;106961;1245;97700;-66
2022/11/24 09:19:30;;;;;;;129.30;41.10;;;;;;;2.38;89.58;100341.67;106967;1250;111482;-66
2022/11/24 09:21:55;;;;;;;123.00;41.90;;;;;;;2.46;89.29;100334.84;106930;1247;97720;-65
2022/11/24 09:24:21;;;;;;;118.30;39.20;;;;;;;2.54;89.56;100330.33;106968;1245;97602;-65
2022/11/24 09:26:46;;;;;;;125.80;39.10;;;;;;;2.61;89.51;100332.11;106814;1240;138778;-66
2022/11/24 09:29:12;;;;;;;123.20;36.10;;;;;;;2.64;89.33;100335.59;106975;1233;97667;-66
2022/11/24 09:31:38;;;;;;;128.40;40.90;;;;;;;2.69;89.25;100336.58;106904;1235;108224;-66
2022/11/24 09:34:07;;;;;;;111.10;37.20;;;;;;;2.69;89.07;100335.14;106915;1233;97630;-66
2022/11/24 09:36:33;;;;;;;116.60;40.40;;;;;;;2.66;89.05;100337.86;107011;1235;98077;-66
2022/11/24 09:38:58;;;;;;;117.50;39.30;;;;;;;2.68;89.10;100339.05;106908;1234;97921;-66
2022/11/24 09:41:57;;;;;;;107.80;38.30;;;;;;;2.71;89.17;100344.64;106999;1244;97772;-66
2022/11/24 09:44:53;;;;;;;113.30;37.60;;;;;;;2.74;89.30;100346.01;106936;1240;97697;-66
2022/11/24 09:47:53;;;;;;;118.20;37.00;;;;;;;2.75;89.23;100352.35;106981;1235;97877;-66
2022/11/24 09:50:30;;;;;;;107.30;36.60;;;;;;;2.73;89.03;100358.38;106962;1241;111703;-66
2022/11/24 09:53:02;;;;;;;127.50;39.30;;;;;;;2.71;89.06;100356.30;106869;1240;139368;-66
2022/11/24 09:55:35;;;;;;;119.00;39.10;;;;;;;2.75;89.19;100362.23;106958;1235;107636;-66
2022/11/24 09:58:09;;;;;;;126.70;38.10;;;;;;;2.79;89.12;100362.88;106971;1235;97791;-66
2022/11/24 10:00:35;;;;;;;126.00;40.20;;;;;;;2.76;89.07;100361.16;106949;1227;98107;-66
2022/11/24 10:03:01;;;;;;;128.80;41.90;;;;;;;2.71;89.00;100364.23;106907;1249;97614;-66
2022/11/24 10:05:29;;;;;;;123.10;40.80;;;;;;;2.68;88.90;100359.52;107007;1241;97726;-66
2022/11/24 10:08:21;;;;;;;134.70;41.90;;;;;;;2.66;88.89;100357.42;106936;1233;97813;-67
2022/11/24 10:10:56;;;;;;;121.40;40.80;;;;;;;2.63;88.85;100357.84;106886;1235;98982;-66
2022/11/24 10:13:46;;;;;;;123.80;41.90;;;;;;;2.64;88.91;100361.86;106926;1235;111527;-66
2022/11/24 10:16:12;;;;;;;129.90;41.90;;;;;;;2.65;88.93;100363.10;106834;1235;139856;-66
2022/11/24 10:18:51;;;;;;;122.60;39.80;;;;;;;2.60;88.83;100363.88;106904;1227;99095;-67
2022/11/24 10:21:42;;;;;;;127.60;42.40;;;;;;;2.60;88.73;100370.74;106781;1245;140262;-66
2022/11/24 10:24:19;;;;;;;123.30;39.90;;;;;;;2.55;88.60;100372.80;106879;1244;97463;-66
2022/11/24 10:26:59;;;;;;;147.90;48.00;;;;;;;2.48;88.56;100373.61;106901;1241;112101;-66
2022/11/24 10:29:32;;;;;;;130.40;42.10;;;;;;;2.45;88.57;100373.48;106971;1235;100016;-66
2022/11/24 10:31:59;;;;;;;137.00;42.50;;;;;;;2.45;88.71;100370.48;106871;1235;108012;-66
2022/11/24 10:34:33;;;;;;;130.90;42.60;;;;;;;2.40;88.45;100375.14;106842;1256;96901;-66
2022/11/24 10:37:35;;;;;;;117.90;38.70;;;;;;;2.28;88.51;100378.13;106943;1233;97621;-65
2022/11/24 10:40:12;;;;;;;153.60;43.70;;;;;;;2.28;88.56;100379.00;106929;1243;111668;-66
2022/11/24 10:42:39;;;;;;;158.90;47.40;;;;;;;2.27;88.32;100377.63;106990;1250;100021;-66
2022/11/24 10:45:11;;;;;;;148.40;45.10;;;;;;;2.24;88.48;100379.06;106824;1240;138863;-66
2022/11/24 10:47:37;;;;;;;145.50;43.20;;;;;;;2.26;88.62;100376.56;106958;1247;97586;-66
2022/11/24 10:50:21;;;;;;;155.10;48.80;;;;;;;2.27;88.58;100376.73;106936;1234;97757;-66
2022/11/24 10:53:25;;;;;;;155.90;48.00;;;;;;;2.24;88.43;100372.55;106921;1247;112409;-66
2022/11/24 10:55:53;;;;;;;155.90;48.60;;;;;;;2.24;88.47;100371.84;107129;1251;100104;-66
2022/11/24 10:58:22;;;;;;;158.00;46.40;;;;;;;2.23;88.58;100369.73;106906;1234;108126;-66
2022/11/24 11:00:48;;;;;;;159.10;47.90;;;;;;;2.22;88.51;100365.34;106918;1243;97647;-65
2022/11/24 11:03:19;;;;;;;156.00;46.30;;;;;;;2.23;88.42;100364.27;106828;1245;140329;-65
2022/11/24 11:05:54;;;;;;;148.60;45.50;;;;;;;2.27;88.44;100363.52;106944;1248;111025;-65